Time;durP1;ratioP1;P1;durP2;ratioP2;P2;SDS_P1;SDS_P2;PMS_P1;PMS_P2;Temp;Humidity;BMP_temperature;BMP_pressure;BME280_temperature;BME280_humidity;BME280_pressure;Samples;Min_cycle;Max_cycle;Signal;HPM_P1;HPM_P2
2022/11/08 00:02:52;;;;;;;3.47;1.27;;;;;;;-145.69;100.00;52571.13;5071930;28;20201;-80
2022/11/08 00:16:16;;;;;;;5.97;1.53;;;;;;;-145.69;100.00;52590.94;5051111;28;20713;-80
2022/11/08 00:18:42;;;;;;;3.60;1.47;;;;;;;-145.69;100.00;52602.81;5053811;28;20195;-80
2022/11/08 00:21:09;;;;;;;4.70;1.80;;;;;;;-145.69;100.00;52563.22;5090685;28;20197;-80
2022/11/08 00:23:35;;;;;;;4.53;1.40;;;;;;;-145.69;100.00;52523.59;5113555;28;20213;-80
2022/11/08 00:26:02;;;;;;;8.73;1.73;;;;;;;-145.69;100.00;52590.94;5125486;28;20192;-81
2022/11/08 00:28:28;;;;;;;10.80;1.93;;;;;;;-145.69;100.00;52590.94;5135622;28;20201;-80
2022/11/08 00:30:55;;;;;;;4.67;2.07;;;;;;;-145.69;100.00;52586.97;5135525;27;20687;-80
2022/11/08 00:33:22;;;;;;;4.07;1.70;;;;;;;-145.69;100.00;52614.72;5135974;27;20244;-80
2022/11/08 00:35:49;;;;;;;5.50;2.00;;;;;;;-145.69;100.00;52575.09;5135720;28;20204;-80
2022/11/08 00:38:15;;;;;;;6.33;2.03;;;;;;;-145.69;100.00;52596.88;5137782;27;20193;-80
2022/11/08 00:40:42;;;;;;;3.30;2.00;;;;;;;-145.69;100.00;52583.00;5135783;27;20200;-80
2022/11/08 00:43:08;;;;;;;2.97;1.90;;;;;;;-145.69;100.00;52579.06;5135104;28;20201;-80
2022/11/08 00:45:35;;;;;;;5.77;2.00;;;;;;;-145.69;100.00;52583.00;5136476;27;20212;-79
2022/11/08 00:48:01;;;;;;;6.23;2.87;;;;;;;-145.69;100.00;52567.16;5134050;27;20200;-80
2022/11/08 00:50:29;;;;;;;5.13;2.50;;;;;;;-145.69;100.00;52555.28;5134004;27;20251;-80
2022/11/08 00:52:55;;;;;;;6.83;1.93;;;;;;;-145.69;100.00;52559.25;5137986;27;20201;-80
2022/11/08 00:55:22;;;;;;;5.83;1.70;;;;;;;-145.69;100.00;52579.06;5137629;27;20196;-80
2022/11/08 00:57:48;;;;;;;6.63;1.63;;;;;;;-145.69;100.00;52590.94;5138447;27;20197;-80
2022/11/08 01:00:16;;;;;;;3.97;2.10;;;;;;;-145.69;100.00;52586.97;5138936;27;20189;-80
2022/11/08 01:02:42;;;;;;;3.47;1.50;;;;;;;-145.69;100.00;52594.91;5139127;27;20207;-80
2022/11/08 01:05:09;;;;;;;8.03;1.93;;;;;;;-145.69;100.00;52588.97;5137380;27;20234;-80
2022/11/08 01:07:37;;;;;;;6.13;1.50;;;;;;;-145.69;100.00;52602.81;5137688;27;20205;-80
2022/11/08 01:10:05;;;;;;;4.40;1.90;;;;;;;-145.69;100.00;52585.00;5139207;27;20260;-80
2022/11/08 01:12:31;;;;;;;10.07;2.10;;;;;;;-145.69;100.00;52577.06;5137520;27;20196;-80
2022/11/08 01:14:58;;;;;;;2.43;1.80;;;;;;;-145.69;100.00;52612.72;5136610;27;20189;-79
2022/11/08 01:17:24;;;;;;;3.27;1.57;;;;;;;-145.69;100.00;52551.31;5136965;27;20200;-80
2022/11/08 01:19:51;;;;;;;5.20;1.80;;;;;;;-145.69;100.00;52551.31;5137559;27;20206;-80
2022/11/08 01:22:17;;;;;;;4.30;1.37;;;;;;;-145.69;100.00;52553.31;5137991;27;20201;-80
2022/11/08 01:24:45;;;;;;;2.37;1.50;;;;;;;-145.69;100.00;52563.22;5138138;27;20275;-80
2022/11/08 01:27:12;;;;;;;4.17;1.80;;;;;;;-145.69;100.00;52606.78;5138108;27;20201;-80
2022/11/08 01:29:38;;;;;;;4.27;1.50;;;;;;;-145.69;100.00;52551.31;5135865;27;20217;-80
2022/11/08 01:32:05;;;;;;;3.77;2.00;;;;;;;-145.69;100.00;52551.31;5137352;27;20189;-80
2022/11/08 01:34:32;;;;;;;2.67;1.70;;;;;;;-145.69;100.00;52622.63;5136294;27;20315;-80
2022/11/08 01:36:58;;;;;;;3.47;1.97;;;;;;;-145.69;100.00;52555.28;5136737;27;20201;-80
2022/11/08 01:39:24;;;;;;;2.37;1.60;;;;;;;-145.69;100.00;52581.03;5135761;27;20204;-80
2022/11/08 01:41:52;;;;;;;4.87;1.73;;;;;;;-145.69;100.00;52600.84;5136352;27;20219;-79
2022/11/08 01:44:20;;;;;;;6.60;1.87;;;;;;;-145.69;100.00;52533.50;5136196;27;20197;-79
2022/11/08 01:46:47;;;;;;;3.67;1.57;;;;;;;-145.69;100.00;52549.34;5136239;27;20566;-80
2022/11/08 01:49:18;;;;;;;3.77;1.70;;;;;;;-145.69;100.00;52559.25;5136450;27;20234;-80
2022/11/08 01:51:50;;;;;;;3.43;1.43;;;;;;;-145.69;100.00;52581.03;5135949;27;20651;-80
2022/11/08 01:54:21;;;;;;;4.67;1.47;;;;;;;-145.69;100.00;52571.13;5136005;27;20659;-80
2022/11/08 01:56:48;;;;;;;1.73;1.50;;;;;;;-145.69;100.00;52561.22;5136070;27;20205;-79
2022/11/08 01:59:18;;;;;;;4.10;1.50;;;;;;;-145.69;100.00;52555.28;5135935;27;20218;-80
2022/11/08 02:01:45;;;;;;;10.83;1.67;;;;;;;-145.69;100.00;52571.13;5136381;27;20207;-80
2022/11/08 02:04:14;;;;;;;4.13;1.63;;;;;;;-145.69;100.00;52559.25;5135504;27;20600;-80
2022/11/08 02:06:41;;;;;;;5.90;1.90;;;;;;;-145.69;100.00;52553.31;5136015;27;20192;-80
2022/11/08 02:09:12;;;;;;;4.10;1.97;;;;;;;-145.69;100.00;52563.22;5135991;27;20208;-79
2022/11/08 02:11:40;;;;;;;7.63;1.70;;;;;;;-145.69;100.00;52590.94;5135859;27;20201;-79
2022/11/08 02:14:07;;;;;;;3.70;1.57;;;;;;;-145.69;100.00;52610.75;5135912;27;20192;-80
2022/11/08 02:16:35;;;;;;;6.13;1.40;;;;;;;-145.69;100.00;52567.16;5135993;27;20201;-80
2022/11/08 02:19:02;;;;;;;4.03;1.30;;;;;;;-145.69;100.00;52590.94;5135932;27;20239;-80
2022/11/08 02:21:34;;;;;;;2.13;1.30;;;;;;;-145.69;100.00;52563.22;5139371;27;20215;-79
2022/11/08 02:24:08;;;;;;;5.13;1.47;;;;;;;-145.69;100.00;52563.22;5138538;27;20207;-80
2022/11/08 02:26:36;;;;;;;4.73;1.60;;;;;;;-145.69;100.00;52555.28;5138887;27;20201;-80
2022/11/08 02:29:24;;;;;;;6.17;1.63;;;;;;;-145.69;100.00;52561.22;5138010;27;20203;-80
2022/11/08 02:31:51;;;;;;;4.30;1.60;;;;;;;-145.69;100.00;52602.81;5141592;27;20284;-80
2022/11/08 02:34:19;;;;;;;9.70;1.73;;;;;;;-145.69;100.00;52571.13;5146860;27;20238;-80
2022/11/08 02:36:48;;;;;;;5.27;1.83;;;;;;;-145.69;100.00;52545.38;5148363;27;20554;-80
2022/11/08 02:39:16;;;;;;;3.77;1.50;;;;;;;-145.69;100.00;52585.00;5141228;27;20222;-80
2022/11/08 02:41:42;;;;;;;3.17;1.53;;;;;;;-145.69;100.00;52579.06;5142149;27;20208;-80
2022/11/08 02:44:09;;;;;;;2.03;1.43;;;;;;;-145.69;100.00;52551.31;5141952;27;20550;-80
2022/11/08 02:46:35;;;;;;;4.40;1.40;;;;;;;-145.69;100.00;52606.78;5137926;27;20658;-80
2022/11/08 02:49:02;;;;;;;8.87;1.10;;;;;;;-145.69;100.00;52567.16;5138214;27;20200;-79
2022/11/08 02:51:28;;;;;;;5.20;1.67;;;;;;;-145.69;100.00;52606.78;5137790;27;20224;-79
2022/11/08 02:53:55;;;;;;;3.13;1.00;;;;;;;-145.69;100.00;52586.97;5136795;27;20652;-80
2022/11/08 02:56:23;;;;;;;3.37;1.30;;;;;;;-145.69;100.00;52537.47;5135563;27;20196;-79
2022/11/08 02:58:49;;;;;;;2.73;1.33;;;;;;;-145.69;100.00;52585.00;5135160;27;20279;-79
2022/11/08 03:01:16;;;;;;;7.30;1.67;;;;;;;-145.69;100.00;52590.94;5134662;27;20655;-79
2022/11/08 03:03:42;;;;;;;3.43;1.37;;;;;;;-145.69;100.00;52563.22;5134872;27;20196;-79
2022/11/08 03:06:09;;;;;;;2.40;1.20;;;;;;;-145.69;100.00;52573.13;5134854;27;20198;-79
2022/11/08 03:08:35;;;;;;;4.10;1.40;;;;;;;-145.69;100.00;52575.09;5134812;27;20207;-79
2022/11/08 03:11:02;;;;;;;3.00;1.20;;;;;;;-145.69;100.00;52571.13;5134643;27;20227;-79
2022/11/08 03:13:30;;;;;;;3.97;1.63;;;;;;;-145.69;100.00;52531.53;5134423;27;20212;-79
2022/11/08 03:15:56;;;;;;;4.00;1.57;;;;;;;-145.69;100.00;52583.00;5134003;27;20274;-79
2022/11/08 03:18:22;;;;;;;2.63;1.03;;;;;;;-145.69;100.00;52545.38;5134523;27;20203;-79
2022/11/08 03:20:49;;;;;;;2.43;1.20;;;;;;;-145.69;100.00;52571.13;5134404;27;20201;-79
2022/11/08 03:23:16;;;;;;;3.77;1.13;;;;;;;-145.69;100.00;52586.97;5134450;27;20200;-79
2022/11/08 03:25:42;;;;;;;3.33;1.10;;;;;;;-145.69;100.00;52551.31;5134344;27;20201;-79
2022/11/08 03:28:09;;;;;;;1.73;1.00;;;;;;;-145.69;100.00;52547.38;5134216;27;20219;-79
2022/11/08 03:30:37;;;;;;;3.77;1.13;;;;;;;-145.69;100.00;52553.31;5134165;27;20224;-79
2022/11/08 03:33:04;;;;;;;7.43;1.23;;;;;;;-145.69;100.00;52563.22;5134210;27;20200;-79
2022/11/08 03:35:31;;;;;;;2.50;1.10;;;;;;;-145.69;100.00;52547.38;5134025;27;20204;-79
2022/11/08 03:37:58;;;;;;;3.00;1.03;;;;;;;-145.69;100.00;52567.16;5134201;27;20193;-79
2022/11/08 03:40:25;;;;;;;4.33;1.20;;;;;;;-145.69;100.00;52545.38;5134083;27;20197;-79
2022/11/08 03:42:52;;;;;;;3.37;1.37;;;;;;;-145.69;100.00;52535.47;5133965;27;20219;-79
2022/11/08 03:45:19;;;;;;;2.60;1.47;;;;;;;-145.69;100.00;52598.84;5134154;27;20559;-79
2022/11/08 03:47:47;;;;;;;3.17;1.03;;;;;;;-145.69;100.00;52563.22;5134221;27;20196;-79
2022/11/08 03:50:15;;;;;;;2.30;1.13;;;;;;;-145.69;100.00;52557.28;5133656;27;20223;-79
2022/11/08 03:52:43;;;;;;;2.35;1.20;;;;;;;-145.69;100.00;52535.47;5132817;27;20425;-79
2022/11/08 03:55:10;;;;;;;2.70;1.10;;;;;;;-145.69;100.00;52539.44;5133813;27;20197;-78
2022/11/08 03:57:37;;;;;;;3.60;1.33;;;;;;;-145.69;100.00;52565.19;5134010;27;20196;-79
2022/11/08 04:00:06;;;;;;;6.93;1.20;;;;;;;-145.69;100.00;52553.31;5134106;28;20201;-79
2022/11/08 04:02:33;;;;;;;2.93;1.07;;;;;;;-145.69;100.00;52535.47;5133698;27;20283;-79
2022/11/08 04:05:00;;;;;;;1.57;1.07;;;;;;;-145.69;100.00;52529.53;5133833;27;20540;-79
2022/11/08 04:07:28;;;;;;;2.50;1.00;;;;;;;-145.69;100.00;52569.16;5133542;27;20197;-79
2022/11/08 04:09:54;;;;;;;1.53;1.03;;;;;;;-145.69;100.00;52529.53;5133626;27;20239;-79
2022/11/08 04:15:15;;;;;;;3.13;1.00;;;;;;;-145.69;100.00;52555.28;5134750;28;20204;-79
2022/11/08 04:23:13;;;;;;;3.27;1.00;;;;;;;-145.69;100.00;52563.22;5133622;27;20204;-79
2022/11/08 04:25:40;;;;;;;3.43;1.27;;;;;;;-145.69;100.00;52519.63;5128970;27;20197;-79
2022/11/08 04:28:07;;;;;;;2.37;1.20;;;;;;;-145.69;100.00;52535.47;5116846;28;20207;-79
2022/11/08 04:30:34;;;;;;;2.10;1.23;;;;;;;-145.69;100.00;52547.38;5117101;28;20221;-79
2022/11/08 04:33:01;;;;;;;1.00;0.90;;;;;;;-145.69;100.00;52577.06;5116943;28;20194;-79
2022/11/08 04:35:30;;;;;;;4.63;1.30;;;;;;;-145.69;100.00;52559.25;5117231;28;20216;-79
2022/11/08 04:37:58;;;;;;;1.80;1.13;;;;;;;-145.69;100.00;52543.41;5128048;27;20208;-79
2022/11/08 04:40:24;;;;;;;1.60;1.10;;;;;;;-145.69;100.00;52559.25;5137951;27;20201;-80
2022/11/08 04:42:51;;;;;;;2.60;1.20;;;;;;;-145.69;100.00;52561.22;5138177;27;20532;-80
2022/11/08 04:45:18;;;;;;;3.37;0.90;;;;;;;-145.69;100.00;52590.94;5137877;27;20204;-79
2022/11/08 04:47:45;;;;;;;1.73;0.90;;;;;;;-145.69;100.00;52571.13;5138417;27;20265;-80
2022/11/08 04:50:12;;;;;;;3.67;1.00;;;;;;;-145.69;100.00;52573.13;5137560;27;20231;-79
2022/11/08 04:52:40;;;;;;;1.10;0.93;;;;;;;-145.69;100.00;52559.25;5137637;27;20197;-80
2022/11/08 04:55:07;;;;;;;3.10;1.10;;;;;;;-145.69;100.00;52561.22;5137182;27;20200;-79
2022/11/08 04:57:34;;;;;;;2.37;0.97;;;;;;;-145.69;100.00;52569.16;5137109;27;20200;-79
2022/11/08 05:00:00;;;;;;;3.70;1.10;;;;;;;-145.69;100.00;52592.91;5137044;27;20566;-79
2022/11/08 05:02:27;;;;;;;2.07;1.03;;;;;;;-145.69;100.00;52551.31;5137345;27;20192;-79
2022/11/08 05:04:53;;;;;;;3.40;1.33;;;;;;;-145.69;100.00;52555.28;5137204;27;20678;-80
2022/11/08 05:07:20;;;;;;;2.83;1.00;;;;;;;-145.69;100.00;52541.44;5136878;27;20208;-79
2022/11/08 05:09:48;;;;;;;3.10;1.30;;;;;;;-145.69;100.00;52519.63;5136907;27;20204;-79
2022/11/08 05:12:14;;;;;;;4.63;1.00;;;;;;;-145.69;100.00;52515.69;5136939;27;20224;-78
2022/11/08 05:14:41;;;;;;;1.30;1.00;;;;;;;-145.69;100.00;52551.31;5136713;27;20544;-79
2022/11/08 05:17:07;;;;;;;1.67;0.80;;;;;;;-145.69;100.00;52571.13;5136986;27;20196;-80
2022/11/08 05:25:03;;;;;;;1.30;1.00;;;;;;;-145.69;100.00;52539.44;5136930;27;20249;-80
2022/11/08 05:27:30;;;;;;;2.47;1.00;;;;;;;-145.69;100.00;52555.28;5136530;27;20670;-79
2022/11/08 05:29:56;;;;;;;2.63;1.03;;;;;;;-145.69;100.00;52555.28;5136701;27;20200;-80
2022/11/08 05:32:23;;;;;;;3.73;1.13;;;;;;;-145.69;100.00;52537.47;5136514;27;20203;-80
2022/11/08 05:34:49;;;;;;;0.80;0.80;;;;;;;-145.69;100.00;52535.47;5136398;27;20241;-80
2022/11/08 05:37:16;;;;;;;1.30;1.00;;;;;;;-145.69;100.00;52577.06;5136570;27;20204;-79
2022/11/08 05:39:43;;;;;;;4.17;1.20;;;;;;;-145.69;100.00;52559.25;5135420;27;20200;-79
2022/11/08 05:42:11;;;;;;;2.25;1.02;;;;;;;-145.69;100.00;52533.50;5135510;27;20441;-79
2022/11/08 05:44:38;;;;;;;2.00;0.93;;;;;;;-145.69;100.00;52553.31;5136665;27;20197;-80
2022/11/08 05:47:04;;;;;;;1.07;0.83;;;;;;;-145.69;100.00;52551.31;5136140;27;20200;-79
2022/11/08 05:49:31;;;;;;;0.77;0.70;;;;;;;-145.69;100.00;52549.34;5136304;27;20197;-80
2022/11/08 05:51:57;;;;;;;2.30;1.10;;;;;;;-145.69;100.00;52541.44;5135962;27;20224;-79
2022/11/08 05:54:24;;;;;;;4.60;1.30;;;;;;;-145.69;100.00;52565.19;5135904;27;20201;-79
2022/11/08 05:56:50;;;;;;;4.03;1.20;;;;;;;-145.69;100.00;52539.44;5136013;27;20200;-78
2022/11/08 05:59:18;;;;;;;4.67;1.00;;;;;;;-145.69;100.00;52511.72;5135927;27;20197;-79
2022/11/08 06:01:45;;;;;;;3.97;1.20;;;;;;;-145.69;100.00;52571.13;5135809;27;20193;-79
2022/11/08 06:04:11;;;;;;;3.83;0.97;;;;;;;-145.69;100.00;52567.16;5137678;27;20201;-79
2022/11/08 06:06:38;;;;;;;5.73;1.13;;;;;;;-145.69;100.00;52586.97;5136736;27;20219;-79
2022/11/08 06:09:04;;;;;;;2.93;0.90;;;;;;;-145.69;100.00;52557.28;5136036;27;20201;-79
2022/11/08 06:11:31;;;;;;;4.40;1.23;;;;;;;-145.69;100.00;52555.28;5135759;27;20702;-79
2022/11/08 06:13:57;;;;;;;1.87;0.90;;;;;;;-145.69;100.00;52549.34;5115558;28;20200;-79
2022/11/08 06:16:25;;;;;;;1.77;1.00;;;;;;;-145.69;100.00;52561.22;5115778;28;20556;-80
2022/11/08 06:18:52;;;;;;;4.87;1.00;;;;;;;-145.69;100.00;52539.44;5116070;28;20198;-80
2022/11/08 06:21:20;;;;;;;1.63;0.83;;;;;;;-145.69;100.00;52539.44;5118516;27;20197;-80
2022/11/08 06:23:47;;;;;;;4.00;1.47;;;;;;;-145.69;100.00;52575.09;5117385;28;20198;-79
2022/11/08 06:26:14;;;;;;;2.83;1.23;;;;;;;-145.69;100.00;52547.38;5117324;28;20199;-79
2022/11/08 06:28:40;;;;;;;1.47;1.00;;;;;;;-145.69;100.00;52543.41;5134166;27;20193;-80
2022/11/08 06:31:07;;;;;;;1.90;1.10;;;;;;;-145.69;100.00;52579.06;5136072;27;20224;-80
2022/11/08 06:33:35;;;;;;;1.90;1.10;;;;;;;-145.69;100.00;52543.41;5136481;27;20231;-79
2022/11/08 06:36:02;;;;;;;4.07;1.23;;;;;;;-145.69;100.00;52513.69;5137552;27;20205;-79
2022/11/08 06:38:28;;;;;;;2.50;1.30;;;;;;;-145.69;100.00;52565.19;5135682;27;20201;-79
2022/11/08 06:40:59;;;;;;;1.50;1.10;;;;;;;-145.69;100.00;52491.91;5135621;27;20196;-79
2022/11/08 06:43:25;;;;;;;0.90;0.70;;;;;;;-145.69;100.00;52535.47;5115250;28;20205;-79
2022/11/08 06:45:52;;;;;;;1.73;0.83;;;;;;;-145.69;100.00;52537.47;5115081;28;20590;-79
2022/11/08 06:48:18;;;;;;;1.00;0.90;;;;;;;-145.69;100.00;52547.38;5114362;28;20275;-79
2022/11/08 06:50:47;;;;;;;1.53;1.00;;;;;;;-145.69;100.00;52571.13;5114557;28;20341;-79
2022/11/08 06:53:13;;;;;;;2.23;0.93;;;;;;;-145.69;100.00;52529.53;5114669;28;20283;-79
2022/11/08 06:55:40;;;;;;;2.73;1.00;;;;;;;-145.69;100.00;52557.28;5114453;28;20209;-79
2022/11/08 06:58:07;;;;;;;5.90;0.80;;;;;;;-145.69;100.00;52507.75;5131563;27;20208;-79
2022/11/08 07:00:34;;;;;;;1.40;0.80;;;;;;;-145.69;100.00;52531.53;5134933;27;20197;-80
2022/11/08 07:03:02;;;;;;;1.33;0.90;;;;;;;-145.69;100.00;52549.34;5134429;27;20192;-79
2022/11/08 07:05:31;;;;;;;2.67;1.00;;;;;;;-145.69;100.00;52563.22;5134748;27;20207;-79
2022/11/08 07:07:59;;;;;;;2.20;1.13;;;;;;;-145.69;100.00;52507.75;5134754;27;20195;-79
2022/11/08 07:10:28;;;;;;;2.07;1.20;;;;;;;-145.69;100.00;52559.25;5134764;27;20559;-80
2022/11/08 07:12:59;;;;;;;1.20;0.80;;;;;;;-145.69;100.00;52531.53;5134885;27;20558;-80
2022/11/08 07:15:26;;;;;;;1.00;0.80;;;;;;;-145.69;100.00;52565.19;5135031;27;20201;-79
2022/11/08 07:17:52;;;;;;;2.30;1.13;;;;;;;-145.69;100.00;52553.31;5134983;27;20288;-80
2022/11/08 07:20:21;;;;;;;5.13;1.00;;;;;;;-145.69;100.00;52513.69;5135031;27;20197;-80
2022/11/08 07:22:47;;;;;;;2.93;0.97;;;;;;;-145.69;100.00;52543.41;5135757;27;20221;-80
2022/11/08 07:25:15;;;;;;;2.93;0.90;;;;;;;-145.69;100.00;52527.56;5135892;27;20196;-79
2022/11/08 07:27:42;;;;;;;1.93;0.87;;;;;;;-145.69;100.00;52565.19;5134250;27;20197;-79
2022/11/08 07:30:09;;;;;;;1.87;0.97;;;;;;;-145.69;100.00;52547.38;5134560;27;20201;-79
2022/11/08 07:32:36;;;;;;;1.40;1.07;;;;;;;-145.69;100.00;52565.19;5134887;27;20225;-79
2022/11/08 07:35:03;;;;;;;1.00;0.80;;;;;;;-145.69;100.00;52563.22;5134326;27;20229;-79
2022/11/08 07:37:29;;;;;;;0.93;0.90;;;;;;;-145.69;100.00;52545.38;5134791;27;20196;-79
2022/11/08 07:39:56;;;;;;;1.20;0.90;;;;;;;-145.69;100.00;52527.56;5134903;27;20203;-79
2022/11/08 07:42:24;;;;;;;4.30;0.87;;;;;;;-145.69;100.00;52553.31;5133898;27;20204;-79
2022/11/08 07:44:50;;;;;;;3.10;1.10;;;;;;;-145.69;100.00;52523.59;5135844;27;20206;-79
2022/11/08 07:47:17;;;;;;;2.23;1.13;;;;;;;-145.69;100.00;52523.59;5137522;27;20200;-79
2022/11/08 07:49:43;;;;;;;2.60;1.17;;;;;;;-145.69;100.00;52539.44;5136832;27;20196;-79
2022/11/08 07:52:10;;;;;;;3.63;1.30;;;;;;;-145.69;100.00;52541.44;5136277;27;20282;-79
2022/11/08 07:54:36;;;;;;;1.37;1.13;;;;;;;-145.69;100.00;52535.47;5136927;27;20204;-80
2022/11/08 07:57:03;;;;;;;2.97;0.80;;;;;;;-145.69;100.00;52571.13;5135193;27;20193;-78
2022/11/08 07:59:31;;;;;;;1.03;0.70;;;;;;;-145.69;100.00;52521.63;5134807;28;20192;-79
2022/11/08 08:01:57;;;;;;;2.00;0.97;;;;;;;-145.69;100.00;52531.53;5133513;27;20184;-79
2022/11/08 08:04:24;;;;;;;1.33;0.90;;;;;;;-145.69;100.00;52537.47;5134000;28;20200;-79
2022/11/08 08:06:50;;;;;;;1.60;0.90;;;;;;;-145.69;100.00;52531.53;5136477;27;20223;-79
2022/11/08 08:09:17;;;;;;;4.43;1.27;;;;;;;-145.69;100.00;52519.63;5134230;28;20207;-79
2022/11/08 08:11:43;;;;;;;2.33;0.80;;;;;;;-145.69;100.00;52563.22;5132586;27;20228;-79
2022/11/08 08:14:10;;;;;;;1.50;0.80;;;;;;;-145.69;100.00;52543.41;5114506;28;20198;-80
2022/11/08 08:16:37;;;;;;;3.10;0.87;;;;;;;-145.69;100.00;52505.78;5116187;28;20207;-80
2022/11/08 08:19:04;;;;;;;0.87;0.80;;;;;;;-145.69;100.00;52527.56;5117241;28;20651;-79
2022/11/08 08:21:31;;;;;;;2.10;1.00;;;;;;;-145.69;100.00;52523.59;5133947;28;20201;-79
2022/11/08 08:23:58;;;;;;;2.20;0.80;;;;;;;-145.69;100.00;52517.66;5135226;28;20283;-79
2022/11/08 08:26:24;;;;;;;1.37;0.73;;;;;;;-145.69;100.00;52470.13;5133854;27;20208;-79
2022/11/08 08:28:51;;;;;;;3.40;0.73;;;;;;;-145.69;95.73;52487.97;5134212;28;20200;-79
2022/11/08 08:31:17;;;;;;;2.80;0.90;;;;;;;-145.69;84.36;52525.59;5134471;27;20231;-79
2022/11/08 08:33:45;;;;;;;1.33;0.83;;;;;;;-145.69;86.02;52464.19;5134238;28;20229;-79
2022/11/08 08:36:12;;;;;;;2.03;0.90;;;;;;;-145.69;97.97;52476.06;5133596;28;20200;-79
2022/11/08 08:38:38;;;;;;;3.33;1.03;;;;;;;-145.69;100.00;52521.63;5134910;28;20207;-79
2022/11/08 08:41:05;;;;;;;1.77;0.93;;;;;;;-145.69;100.00;52466.16;5134146;27;20591;-79
2022/11/08 08:43:32;;;;;;;3.07;1.00;;;;;;;-145.69;100.00;52489.94;5133966;28;20567;-80
2022/11/08 08:45:59;;;;;;;4.77;0.90;;;;;;;-145.69;100.00;52484.00;5133949;28;20265;-80
2022/11/08 08:48:26;;;;;;;2.67;1.05;;;;;;;-145.69;92.82;52474.09;5133961;27;20197;-80
2022/11/08 08:50:54;;;;;;;2.67;1.27;;;;;;;-145.69;90.47;52442.41;5133396;27;20200;-83
2022/11/08 08:53:21;;;;;;;2.80;0.98;;;;;;;-145.69;84.95;52466.16;5133596;27;20555;-81
2022/11/08 08:55:51;;;;;;;1.10;0.90;;;;;;;-145.69;84.63;52466.16;5133535;27;20197;-82
2022/11/08 08:58:18;;;;;;;2.67;0.90;;;;;;;-145.69;90.80;52460.22;5133482;27;20200;-82
2022/11/08 09:00:46;;;;;;;1.67;0.82;;;;;;;-145.69;78.47;52480.03;5133403;28;20193;-82
2022/11/08 09:03:13;;;;;;;3.25;0.80;;;;;;;-145.69;79.08;52452.31;5130598;28;20221;-82
2022/11/08 09:05:42;;;;;;;0.77;0.60;;;;;;;-145.69;69.42;52432.50;5113756;28;20228;-82
2022/11/08 09:08:11;;;;;;;0.77;0.77;;;;;;;-145.69;69.42;52428.53;5116380;28;20193;-82
2022/11/08 09:10:37;;;;;;;3.92;0.73;;;;;;;-145.69;52.85;52444.38;5117905;28;20240;-82
2022/11/08 09:13:04;;;;;;;2.22;0.73;;;;;;;-145.69;50.36;52432.50;5112913;28;20687;-81
2022/11/08 09:15:31;;;;;;;1.08;0.70;;;;;;;-145.69;52.82;52460.22;5117654;27;20201;-81
2022/11/08 09:17:58;;;;;;;1.00;0.60;;;;;;;-145.69;57.82;52424.59;5139601;27;20205;-82
2022/11/08 09:20:25;;;;;;;1.25;0.68;;;;;;;-145.69;54.46;52424.59;5142508;27;20607;-82
2022/11/08 09:22:52;;;;;;;1.08;0.70;;;;;;;-145.69;48.92;52392.91;5138434;27;20193;-80
2022/11/08 09:25:19;;;;;;;0.95;0.60;;;;;;;-145.69;46.71;52416.66;5140572;27;20204;-81
2022/11/08 09:27:46;;;;;;;2.60;0.82;;;;;;;-145.69;47.60;52406.75;5140352;27;20208;-80
2022/11/08 09:30:13;;;;;;;0.80;0.60;;;;;;;-145.69;46.20;52416.66;5139911;27;20355;-81
2022/11/08 09:32:39;;;;;;;0.85;0.60;;;;;;;-145.69;45.67;52384.97;5143451;27;20231;-80
2022/11/08 09:35:06;;;;;;;1.90;0.80;;;;;;;-145.69;47.73;52390.91;5139847;27;20239;-80
2022/11/08 09:37:32;;;;;;;1.15;0.68;;;;;;;-145.69;47.50;52394.88;5141378;27;20225;-80
2022/11/08 09:39:59;;;;;;;2.30;0.90;;;;;;;-145.69;48.44;52406.75;5142415;27;20208;-80
2022/11/08 09:42:45;;;;;;;2.10;0.70;;;;;;;-145.69;49.19;52414.69;5138237;27;20193;-81
2022/11/08 09:45:30;;;;;;;1.65;0.60;;;;;;;-145.69;56.44;52363.19;5137565;27;20209;-81
2022/11/08 09:48:00;;;;;;;2.22;0.85;;;;;;;-145.69;59.39;52392.91;5137483;27;20204;-82
2022/11/08 09:50:34;;;;;;;4.55;0.90;;;;;;;-145.69;51.19;52438.44;5137884;27;20203;-83
2022/11/08 09:53:14;;;;;;;1.08;0.90;;;;;;;-145.69;53.34;52412.69;5138280;27;20221;-83
2022/11/08 09:55:46;;;;;;;1.85;0.70;;;;;;;-145.69;55.67;52394.88;5136829;27;20207;-82
2022/11/08 09:58:26;;;;;;;2.17;0.73;;;;;;;-145.69;57.03;52394.88;5136107;27;20207;-83
2022/11/08 10:00:52;;;;;;;0.80;0.63;;;;;;;-145.69;64.79;52416.66;5135811;27;20391;-82
2022/11/08 10:03:22;;;;;;;1.42;0.68;;;;;;;-145.69;61.14;52424.59;5136518;27;20258;-83
2022/11/08 10:06:16;;;;;;;2.10;0.70;;;;;;;-145.69;55.37;52400.81;5136034;27;20723;-81
2022/11/08 10:08:50;;;;;;;1.33;0.65;;;;;;;-145.69;58.52;52400.81;5137867;27;20203;-80
2022/11/08 10:11:26;;;;;;;1.48;0.80;;;;;;;-145.69;50.72;52367.16;5137460;27;20207;-81
2022/11/08 10:14:07;;;;;;;2.67;0.90;;;;;;;-145.69;54.49;52369.13;5137613;27;20200;-81
2022/11/08 10:16:39;;;;;;;1.80;0.80;;;;;;;-145.69;46.92;52381.00;5130830;27;20211;-80
2022/11/08 10:19:33;;;;;;;1.60;0.88;;;;;;;-145.69;60.45;52353.28;5127575;27;20551;-81
2022/11/08 10:22:03;;;;;;;0.82;0.60;;;;;;;-145.69;49.10;52369.13;5139029;27;20201;-80
2022/11/08 10:24:35;;;;;;;1.33;0.93;;;;;;;-145.69;44.23;52390.91;5139521;27;20218;-81
2022/11/08 10:27:02;;;;;;;2.08;0.65;;;;;;;-145.69;45.83;52363.19;5135793;27;20253;-82
2022/11/08 10:29:36;;;;;;;1.83;0.60;;;;;;;-145.69;45.96;52367.16;5135960;27;20197;-82
2022/11/08 10:32:12;;;;;;;1.48;0.60;;;;;;;-145.69;44.58;52327.53;5135333;27;20239;-82
2022/11/08 10:34:43;;;;;;;4.78;0.80;;;;;;;-145.69;49.38;52363.19;5135374;27;20224;-82
2022/11/08 10:37:13;;;;;;;2.55;0.60;;;;;;;-145.69;48.26;52381.00;5135451;27;20204;-81
2022/11/08 10:39:47;;;;;;;0.90;0.75;;;;;;;-145.69;54.63;52377.06;5135235;27;20783;-81
2022/11/08 10:42:20;;;;;;;1.25;0.88;;;;;;;-145.69;51.91;52377.06;5139986;27;20681;-83
2022/11/08 10:44:48;;;;;;;3.20;0.85;;;;;;;-145.69;52.92;52341.41;5135269;27;20205;-82
2022/11/08 10:47:21;;;;;;;0.95;0.63;;;;;;;-145.69;49.00;52337.44;5135545;27;20196;-82
2022/11/08 10:49:48;;;;;;;3.85;1.00;;;;;;;-145.69;49.35;52371.13;5135064;27;20201;-82
2022/11/08 10:52:18;;;;;;;1.00;0.50;;;;;;;-145.69;49.38;52388.94;5134777;27;20231;-82
2022/11/08 10:54:50;;;;;;;3.92;1.05;;;;;;;-145.69;52.37;52367.16;5135277;27;20228;-81
2022/11/08 10:57:22;;;;;;;2.72;0.98;;;;;;;-145.69;46.73;52398.84;5135234;27;20219;-82
2022/11/08 10:59:51;;;;;;;1.27;0.70;;;;;;;-145.69;51.15;52369.13;5137958;27;20200;-82
2022/11/08 11:02:27;;;;;;;1.58;0.70;;;;;;;-145.69;48.75;52325.56;5136570;27;20196;-80
2022/11/08 11:05:21;;;;;;;3.35;1.00;;;;;;;-145.69;52.89;52375.06;5136174;27;20285;-81
2022/11/08 11:08:04;;;;;;;2.05;0.80;;;;;;;-145.69;49.87;52341.41;5135896;27;20205;-81
2022/11/08 11:10:33;;;;;;;3.47;0.88;;;;;;;-145.69;49.70;52349.31;5135592;27;20196;-80
2022/11/08 11:13:06;;;;;;;1.02;0.90;;;;;;;-145.69;53.14;52373.09;5136132;27;20231;-80
2022/11/08 11:15:36;;;;;;;2.10;1.00;;;;;;;-145.69;50.58;52349.31;5134564;27;20666;-80
2022/11/08 11:18:04;;;;;;;4.20;1.08;;;;;;;-145.69;49.81;52365.16;5134940;27;20264;-80
2022/11/08 11:20:32;;;;;;;1.98;0.85;;;;;;;-145.69;49.54;52305.75;5135341;27;20200;-81
2022/11/08 11:23:00;;;;;;;0.73;0.70;;;;;;;-145.69;46.59;52315.66;5134590;27;20559;-83
2022/11/08 11:25:27;;;;;;;2.55;0.95;;;;;;;-145.69;46.88;52345.38;5134920;27;20200;-83
2022/11/08 11:27:57;;;;;;;1.85;0.80;;;;;;;-145.69;46.10;52321.59;5134283;27;20651;-83
2022/11/08 11:30:28;;;;;;;1.85;1.20;;;;;;;-145.69;45.15;52323.59;5135847;27;20196;-84
2022/11/08 11:32:59;;;;;;;1.50;0.90;;;;;;;-145.69;44.46;52349.31;5134162;27;20224;-85
2022/11/08 11:35:29;;;;;;;1.42;0.90;;;;;;;-145.69;44.40;52343.38;5133769;27;20446;-84
2022/11/08 11:37:58;;;;;;;2.72;1.20;;;;;;;-145.69;47.28;52321.59;5133741;27;20570;-84
2022/11/08 11:40:33;;;;;;;2.60;1.35;;;;;;;-145.69;43.58;52337.44;5125028;27;20560;-81
2022/11/08 11:43:08;;;;;;;2.75;1.00;;;;;;;-145.69;45.94;52309.72;5127249;27;20196;-82